Mc Grath, Alaska
Current Conditions -  °F | °C
As of 10:53 PM on Thursday 23 Oct 2014 (Local Time) from PAMC Reporting Station
Overcast Overcast  
Wind Chill: -7°   Ceiling: 7500
Heat Index: -3°   Visibility: 10mi
Dew Point: -7°   Wind: 6mph
Humidity: 78%   Direction: 150°SSE
Pressure: 29.77"   Gusts: NA
Location:  63.1005°N, 155.153°W
Report Text: PAMC 240653Z AUTO 15005KT 10SM BKN075 OVC090 M03/M07 A2977 RMK SLP090 T10331067 TSNO VIA AUTODIAL
Loading
Personal Weather Stations






























Interactive Weather Map
Tropical Storm Tracking
New forecast layout! Learn more

10-Day Weather Forecast

Advertisements
Track Severe Weather on mobile